sensor_id;sensor_type;location;lat;lon;timestamp;P1;durP1;ratioP1;P2;durP2;ratioP2
74245;SDS011;62601;51.044;13.788;2023-10-19T00:00:01;6.40;;;5.60;;
74245;SDS011;62601;51.044;13.788;2023-10-19T00:02:23;10.60;;;5.70;;
74245;SDS011;62601;51.044;13.788;2023-10-19T00:04:44;7.45;;;4.95;;
74245;SDS011;62601;51.044;13.788;2023-10-19T00:07:05;7.47;;;5.75;;
74245;SDS011;62601;51.044;13.788;2023-10-19T00:09:25;6.80;;;5.18;;
74245;SDS011;62601;51.044;13.788;2023-10-19T00:11:47;7.65;;;5.65;;
74245;SDS011;62601;51.044;13.788;2023-10-19T00:14:08;8.75;;;5.88;;
74245;SDS011;62601;51.044;13.788;2023-10-19T00:16:29;6.82;;;5.15;;
74245;SDS011;62601;51.044;13.788;2023-10-19T00:18:51;8.20;;;5.47;;
74245;SDS011;62601;51.044;13.788;2023-10-19T00:21:11;8.63;;;5.95;;
74245;SDS011;62601;51.044;13.788;2023-10-19T00:23:31;7.20;;;5.85;;
74245;SDS011;62601;51.044;13.788;2023-10-19T00:25:52;9.35;;;5.70;;
74245;SDS011;62601;51.044;13.788;2023-10-19T00:28:12;6.20;;;5.07;;
74245;SDS011;62601;51.044;13.788;2023-10-19T00:30:32;7.95;;;4.82;;
74245;SDS011;62601;51.044;13.788;2023-10-19T00:32:54;10.00;;;5.57;;
74245;SDS011;62601;51.044;13.788;2023-10-19T00:35:14;6.70;;;5.55;;
74245;SDS011;62601;51.044;13.788;2023-10-19T00:37:35;7.88;;;5.80;;
74245;SDS011;62601;51.044;13.788;2023-10-19T00:39:56;9.70;;;5.50;;
74245;SDS011;62601;51.044;13.788;2023-10-19T00:42:17;8.90;;;5.65;;
74245;SDS011;62601;51.044;13.788;2023-10-19T00:44:37;6.07;;;5.00;;
74245;SDS011;62601;51.044;13.788;2023-10-19T00:46:57;8.77;;;6.00;;
74245;SDS011;62601;51.044;13.788;2023-10-19T00:49:17;6.93;;;5.82;;
74245;SDS011;62601;51.044;13.788;2023-10-19T00:51:55;8.18;;;5.70;;
74245;SDS011;62601;51.044;13.788;2023-10-19T00:54:26;7.60;;;5.53;;
74245;SDS011;62601;51.044;13.788;2023-10-19T00:56:48;6.63;;;5.70;;
74245;SDS011;62601;51.044;13.788;2023-10-19T00:59:12;12.18;;;6.50;;
74245;SDS011;62601;51.044;13.788;2023-10-19T01:01:33;6.63;;;5.93;;
74245;SDS011;62601;51.044;13.788;2023-10-19T01:03:55;9.18;;;6.10;;
74245;SDS011;62601;51.044;13.788;2023-10-19T01:06:16;14.27;;;6.93;;
74245;SDS011;62601;51.044;13.788;2023-10-19T01:08:37;6.63;;;5.70;;
74245;SDS011;62601;51.044;13.788;2023-10-19T01:10:57;9.80;;;5.38;;
74245;SDS011;62601;51.044;13.788;2023-10-19T01:13:18;6.80;;;5.82;;
74245;SDS011;62601;51.044;13.788;2023-10-19T01:15:39;9.27;;;6.15;;
74245;SDS011;62601;51.044;13.788;2023-10-19T01:17:59;8.98;;;5.82;;
74245;SDS011;62601;51.044;13.788;2023-10-19T01:20:21;7.55;;;5.63;;
74245;SDS011;62601;51.044;13.788;2023-10-19T01:22:58;8.60;;;5.75;;
74245;SDS011;62601;51.044;13.788;2023-10-19T01:25:20;6.78;;;5.65;;
74245;SDS011;62601;51.044;13.788;2023-10-19T01:27:41;11.52;;;7.10;;
74245;SDS011;62601;51.044;13.788;2023-10-19T01:30:03;6.80;;;6.10;;
74245;SDS011;62601;51.044;13.788;2023-10-19T01:32:24;8.60;;;6.40;;
74245;SDS011;62601;51.044;13.788;2023-10-19T01:34:44;11.15;;;6.22;;
74245;SDS011;62601;51.044;13.788;2023-10-19T01:37:04;6.93;;;6.10;;
74245;SDS011;62601;51.044;13.788;2023-10-19T01:39:24;9.90;;;6.50;;
74245;SDS011;62601;51.044;13.788;2023-10-19T01:41:45;8.43;;;6.20;;
74245;SDS011;62601;51.044;13.788;2023-10-19T01:44:06;7.00;;;6.25;;
74245;SDS011;62601;51.044;13.788;2023-10-19T01:46:27;9.95;;;5.97;;
74245;SDS011;62601;51.044;13.788;2023-10-19T01:48:50;6.85;;;5.90;;
74245;SDS011;62601;51.044;13.788;2023-10-19T01:51:11;8.20;;;7.30;;
74245;SDS011;62601;51.044;13.788;2023-10-19T01:53:33;8.88;;;6.47;;
74245;SDS011;62601;51.044;13.788;2023-10-19T01:55:53;9.63;;;7.10;;
74245;SDS011;62601;51.044;13.788;2023-10-19T01:58:13;8.65;;;7.47;;
74245;SDS011;62601;51.044;13.788;2023-10-19T02:00:34;20.48;;;7.13;;
74245;SDS011;62601;51.044;13.788;2023-10-19T02:02:54;9.77;;;7.55;;
74245;SDS011;62601;51.044;13.788;2023-10-19T02:05:16;11.43;;;6.47;;
74245;SDS011;62601;51.044;13.788;2023-10-19T02:07:36;8.35;;;6.40;;
74245;SDS011;62601;51.044;13.788;2023-10-19T02:09:56;12.05;;;6.97;;
74245;SDS011;62601;51.044;13.788;2023-10-19T02:12:16;7.82;;;6.82;;
74245;SDS011;62601;51.044;13.788;2023-10-19T02:14:36;9.20;;;7.07;;
74245;SDS011;62601;51.044;13.788;2023-10-19T02:16:59;7.60;;;6.80;;
74245;SDS011;62601;51.044;13.788;2023-10-19T02:19:22;9.88;;;7.28;;
74245;SDS011;62601;51.044;13.788;2023-10-19T02:21:44;9.07;;;6.78;;
74245;SDS011;62601;51.044;13.788;2023-10-19T02:24:04;8.85;;;7.07;;
74245;SDS011;62601;51.044;13.788;2023-10-19T02:26:25;8.98;;;6.60;;
74245;SDS011;62601;51.044;13.788;2023-10-19T02:28:46;11.07;;;8.52;;
74245;SDS011;62601;51.044;13.788;2023-10-19T02:31:06;9.43;;;7.53;;
74245;SDS011;62601;51.044;13.788;2023-10-19T02:33:28;10.35;;;7.30;;
74245;SDS011;62601;51.044;13.788;2023-10-19T02:35:48;11.35;;;8.00;;
74245;SDS011;62601;51.044;13.788;2023-10-19T02:38:08;10.32;;;8.35;;
74245;SDS011;62601;51.044;13.788;2023-10-19T02:40:29;11.55;;;9.77;;
74245;SDS011;62601;51.044;13.788;2023-10-19T02:42:49;12.25;;;7.88;;
74245;SDS011;62601;51.044;13.788;2023-10-19T02:45:11;10.35;;;7.90;;
74245;SDS011;62601;51.044;13.788;2023-10-19T02:47:32;11.10;;;8.23;;
74245;SDS011;62601;51.044;13.788;2023-10-19T02:49:53;11.93;;;7.95;;
74245;SDS011;62601;51.044;13.788;2023-10-19T02:52:15;12.55;;;9.00;;
74245;SDS011;62601;51.044;13.788;2023-10-19T02:54:35;10.10;;;8.23;;
74245;SDS011;62601;51.044;13.788;2023-10-19T02:56:55;15.98;;;9.50;;
74245;SDS011;62601;51.044;13.788;2023-10-19T02:59:15;18.35;;;8.55;;
74245;SDS011;62601;51.044;13.788;2023-10-19T03:01:37;13.98;;;9.25;;
74245;SDS011;62601;51.044;13.788;2023-10-19T03:03:57;13.10;;;10.32;;
74245;SDS011;62601;51.044;13.788;2023-10-19T03:06:22;12.23;;;8.73;;
74245;SDS011;62601;51.044;13.788;2023-10-19T03:08:43;12.93;;;9.95;;
74245;SDS011;62601;51.044;13.788;2023-10-19T03:11:03;10.18;;;8.82;;
74245;SDS011;62601;51.044;13.788;2023-10-19T03:13:23;12.38;;;9.27;;
74245;SDS011;62601;51.044;13.788;2023-10-19T03:15:43;11.15;;;8.43;;
74245;SDS011;62601;51.044;13.788;2023-10-19T03:18:03;11.25;;;8.70;;
74245;SDS011;62601;51.044;13.788;2023-10-19T03:20:25;10.65;;;8.57;;
74245;SDS011;62601;51.044;13.788;2023-10-19T03:22:47;12.70;;;8.80;;
74245;SDS011;62601;51.044;13.788;2023-10-19T03:25:07;12.77;;;7.53;;
74245;SDS011;62601;51.044;13.788;2023-10-19T03:27:27;12.02;;;8.80;;
74245;SDS011;62601;51.044;13.788;2023-10-19T03:29:48;9.95;;;7.95;;
74245;SDS011;62601;51.044;13.788;2023-10-19T03:32:08;10.10;;;9.00;;
74245;SDS011;62601;51.044;13.788;2023-10-19T03:34:30;12.35;;;9.25;;
74245;SDS011;62601;51.044;13.788;2023-10-19T03:36:51;10.45;;;8.35;;
74245;SDS011;62601;51.044;13.788;2023-10-19T03:39:11;14.48;;;9.25;;
74245;SDS011;62601;51.044;13.788;2023-10-19T03:41:32;12.27;;;10.40;;
74245;SDS011;62601;51.044;13.788;2023-10-19T03:43:56;9.57;;;8.57;;
74245;SDS011;62601;51.044;13.788;2023-10-19T03:46:18;12.13;;;9.68;;
74245;SDS011;62601;51.044;13.788;2023-10-19T03:48:39;10.82;;;9.52;;
74245;SDS011;62601;51.044;13.788;2023-10-19T03:50:59;10.45;;;8.98;;
74245;SDS011;62601;51.044;13.788;2023-10-19T03:53:19;10.15;;;8.68;;
74245;SDS011;62601;51.044;13.788;2023-10-19T03:55:40;15.43;;;9.88;;
74245;SDS011;62601;51.044;13.788;2023-10-19T03:58:00;11.88;;;10.25;;
74245;SDS011;62601;51.044;13.788;2023-10-19T04:00:22;10.45;;;9.35;;
74245;SDS011;62601;51.044;13.788;2023-10-19T04:02:42;12.68;;;10.60;;
74245;SDS011;62601;51.044;13.788;2023-10-19T04:05:02;12.73;;;10.32;;
74245;SDS011;62601;51.044;13.788;2023-10-19T04:07:22;16.98;;;10.63;;
74245;SDS011;62601;51.044;13.788;2023-10-19T04:09:44;12.00;;;10.43;;
74245;SDS011;62601;51.044;13.788;2023-10-19T04:12:05;13.93;;;11.20;;
74245;SDS011;62601;51.044;13.788;2023-10-19T04:14:25;12.05;;;10.75;;
74245;SDS011;62601;51.044;13.788;2023-10-19T04:16:45;15.95;;;12.95;;
74245;SDS011;62601;51.044;13.788;2023-10-19T04:19:06;11.63;;;10.45;;
74245;SDS011;62601;51.044;13.788;2023-10-19T04:21:27;13.98;;;11.35;;
74245;SDS011;62601;51.044;13.788;2023-10-19T04:23:49;13.40;;;12.00;;
74245;SDS011;62601;51.044;13.788;2023-10-19T04:26:10;14.63;;;11.68;;
74245;SDS011;62601;51.044;13.788;2023-10-19T04:28:31;14.52;;;11.50;;
74245;SDS011;62601;51.044;13.788;2023-10-19T04:30:53;14.82;;;11.82;;
74245;SDS011;62601;51.044;13.788;2023-10-19T04:33:13;13.75;;;11.30;;
74245;SDS011;62601;51.044;13.788;2023-10-19T04:35:37;21.65;;;13.23;;
74245;SDS011;62601;51.044;13.788;2023-10-19T04:37:58;16.83;;;13.07;;
74245;SDS011;62601;51.044;13.788;2023-10-19T04:40:19;16.90;;;13.38;;
74245;SDS011;62601;51.044;13.788;2023-10-19T04:42:39;19.25;;;14.60;;
74245;SDS011;62601;51.044;13.788;2023-10-19T04:45:00;19.98;;;14.20;;
74245;SDS011;62601;51.044;13.788;2023-10-19T04:47:21;19.33;;;13.95;;
74245;SDS011;62601;51.044;13.788;2023-10-19T04:49:42;17.73;;;14.10;;
74245;SDS011;62601;51.044;13.788;2023-10-19T04:52:03;25.02;;;14.52;;
74245;SDS011;62601;51.044;13.788;2023-10-19T04:54:23;18.17;;;14.35;;
74245;SDS011;62601;51.044;13.788;2023-10-19T04:56:43;21.38;;;14.13;;
74245;SDS011;62601;51.044;13.788;2023-10-19T04:59:04;18.52;;;13.90;;
74245;SDS011;62601;51.044;13.788;2023-10-19T05:01:24;17.20;;;14.13;;
74245;SDS011;62601;51.044;13.788;2023-10-19T05:03:45;19.55;;;14.52;;
74245;SDS011;62601;51.044;13.788;2023-10-19T05:06:05;19.90;;;15.27;;
74245;SDS011;62601;51.044;13.788;2023-10-19T05:08:26;16.13;;;14.15;;
74245;SDS011;62601;51.044;13.788;2023-10-19T05:10:48;18.58;;;14.57;;
74245;SDS011;62601;51.044;13.788;2023-10-19T05:13:08;18.30;;;14.63;;
74245;SDS011;62601;51.044;13.788;2023-10-19T05:15:30;16.85;;;14.55;;
74245;SDS011;62601;51.044;13.788;2023-10-19T05:17:51;18.08;;;14.43;;
74245;SDS011;62601;51.044;13.788;2023-10-19T05:20:13;16.02;;;14.30;;
74245;SDS011;62601;51.044;13.788;2023-10-19T05:22:34;17.30;;;14.48;;
74245;SDS011;62601;51.044;13.788;2023-10-19T05:24:55;18.88;;;15.95;;
74245;SDS011;62601;51.044;13.788;2023-10-19T05:27:15;20.63;;;15.55;;
74245;SDS011;62601;51.044;13.788;2023-10-19T05:29:35;19.48;;;16.27;;
74245;SDS011;62601;51.044;13.788;2023-10-19T05:31:57;18.30;;;15.30;;
74245;SDS011;62601;51.044;13.788;2023-10-19T05:34:19;18.02;;;14.98;;
74245;SDS011;62601;51.044;13.788;2023-10-19T05:36:40;17.90;;;14.63;;
74245;SDS011;62601;51.044;13.788;2023-10-19T05:39:00;16.58;;;14.80;;
74245;SDS011;62601;51.044;13.788;2023-10-19T05:41:21;18.77;;;15.20;;
74245;SDS011;62601;51.044;13.788;2023-10-19T05:43:42;18.52;;;14.75;;
74245;SDS011;62601;51.044;13.788;2023-10-19T05:46:04;19.38;;;15.30;;
74245;SDS011;62601;51.044;13.788;2023-10-19T05:48:24;16.42;;;14.65;;
74245;SDS011;62601;51.044;13.788;2023-10-19T05:50:44;19.40;;;15.02;;
74245;SDS011;62601;51.044;13.788;2023-10-19T05:53:05;20.45;;;15.75;;
74245;SDS011;62601;51.044;13.788;2023-10-19T05:55:26;19.63;;;15.90;;
74245;SDS011;62601;51.044;13.788;2023-10-19T05:57:46;19.30;;;15.90;;
74245;SDS011;62601;51.044;13.788;2023-10-19T06:00:08;18.35;;;15.45;;
74245;SDS011;62601;51.044;13.788;2023-10-19T06:02:28;19.08;;;14.95;;
74245;SDS011;62601;51.044;13.788;2023-10-19T06:04:49;20.20;;;16.73;;
74245;SDS011;62601;51.044;13.788;2023-10-19T06:07:10;20.33;;;15.07;;
74245;SDS011;62601;51.044;13.788;2023-10-19T06:09:30;17.98;;;14.48;;
74245;SDS011;62601;51.044;13.788;2023-10-19T06:11:51;17.45;;;14.93;;
74245;SDS011;62601;51.044;13.788;2023-10-19T06:14:12;17.67;;;15.57;;
74245;SDS011;62601;51.044;13.788;2023-10-19T06:16:33;19.70;;;16.10;;
74245;SDS011;62601;51.044;13.788;2023-10-19T06:18:54;18.15;;;16.05;;
74245;SDS011;62601;51.044;13.788;2023-10-19T06:21:17;18.95;;;15.60;;
74245;SDS011;62601;51.044;13.788;2023-10-19T06:23:38;17.98;;;15.75;;
74245;SDS011;62601;51.044;13.788;2023-10-19T06:25:58;19.13;;;16.05;;
74245;SDS011;62601;51.044;13.788;2023-10-19T06:28:19;20.15;;;14.77;;
74245;SDS011;62601;51.044;13.788;2023-10-19T06:30:43;19.50;;;16.38;;
74245;SDS011;62601;51.044;13.788;2023-10-19T06:33:04;19.27;;;15.43;;
74245;SDS011;62601;51.044;13.788;2023-10-19T06:35:24;19.25;;;15.60;;
74245;SDS011;62601;51.044;13.788;2023-10-19T06:37:44;20.00;;;15.27;;
74245;SDS011;62601;51.044;13.788;2023-10-19T06:40:06;19.80;;;16.13;;
74245;SDS011;62601;51.044;13.788;2023-10-19T06:42:26;19.52;;;15.43;;
74245;SDS011;62601;51.044;13.788;2023-10-19T06:44:48;19.63;;;15.02;;
74245;SDS011;62601;51.044;13.788;2023-10-19T06:47:09;21.75;;;15.63;;
74245;SDS011;62601;51.044;13.788;2023-10-19T06:49:29;18.52;;;15.75;;
74245;SDS011;62601;51.044;13.788;2023-10-19T06:51:50;21.42;;;16.38;;
74245;SDS011;62601;51.044;13.788;2023-10-19T06:54:12;19.90;;;15.63;;
74245;SDS011;62601;51.044;13.788;2023-10-19T06:56:33;17.90;;;15.50;;
74245;SDS011;62601;51.044;13.788;2023-10-19T06:58:53;20.95;;;16.05;;
74245;SDS011;62601;51.044;13.788;2023-10-19T07:01:13;20.20;;;17.15;;
74245;SDS011;62601;51.044;13.788;2023-10-19T07:03:33;21.63;;;17.50;;
74245;SDS011;62601;51.044;13.788;2023-10-19T07:05:55;19.35;;;17.25;;
74245;SDS011;62601;51.044;13.788;2023-10-19T07:08:16;21.20;;;17.58;;
74245;SDS011;62601;51.044;13.788;2023-10-19T07:10:37;23.65;;;17.15;;
74245;SDS011;62601;51.044;13.788;2023-10-19T07:12:59;25.92;;;16.67;;
74245;SDS011;62601;51.044;13.788;2023-10-19T07:15:19;24.88;;;16.75;;
74245;SDS011;62601;51.044;13.788;2023-10-19T07:17:41;23.70;;;17.90;;
74245;SDS011;62601;51.044;13.788;2023-10-19T07:20:01;19.33;;;17.00;;
74245;SDS011;62601;51.044;13.788;2023-10-19T07:22:21;20.38;;;15.45;;
74245;SDS011;62601;51.044;13.788;2023-10-19T07:24:41;19.77;;;16.80;;
74245;SDS011;62601;51.044;13.788;2023-10-19T07:27:03;22.83;;;17.67;;
74245;SDS011;62601;51.044;13.788;2023-10-19T07:29:24;21.35;;;17.63;;
74245;SDS011;62601;51.044;13.788;2023-10-19T07:31:44;19.35;;;17.13;;
74245;SDS011;62601;51.044;13.788;2023-10-19T07:34:06;22.92;;;18.17;;
74245;SDS011;62601;51.044;13.788;2023-10-19T07:36:27;20.88;;;16.80;;
74245;SDS011;62601;51.044;13.788;2023-10-19T07:38:49;21.10;;;17.02;;
74245;SDS011;62601;51.044;13.788;2023-10-19T07:41:09;21.95;;;16.80;;
74245;SDS011;62601;51.044;13.788;2023-10-19T07:43:30;21.05;;;17.50;;
74245;SDS011;62601;51.044;13.788;2023-10-19T07:45:51;21.83;;;17.25;;
74245;SDS011;62601;51.044;13.788;2023-10-19T07:48:16;22.60;;;17.40;;
74245;SDS011;62601;51.044;13.788;2023-10-19T07:50:37;27.27;;;17.88;;
74245;SDS011;62601;51.044;13.788;2023-10-19T07:52:57;22.65;;;18.00;;
74245;SDS011;62601;51.044;13.788;2023-10-19T07:55:18;21.48;;;16.90;;
74245;SDS011;62601;51.044;13.788;2023-10-19T07:57:40;20.13;;;16.90;;
74245;SDS011;62601;51.044;13.788;2023-10-19T08:00:00;22.67;;;17.75;;
74245;SDS011;62601;51.044;13.788;2023-10-19T08:02:20;20.08;;;16.48;;
74245;SDS011;62601;51.044;13.788;2023-10-19T08:04:40;25.00;;;17.98;;
74245;SDS011;62601;51.044;13.788;2023-10-19T08:07:00;20.20;;;16.90;;
74245;SDS011;62601;51.044;13.788;2023-10-19T08:09:22;20.30;;;17.27;;
74245;SDS011;62601;51.044;13.788;2023-10-19T08:11:42;20.27;;;16.20;;
74245;SDS011;62601;51.044;13.788;2023-10-19T08:14:02;19.38;;;16.77;;
74245;SDS011;62601;51.044;13.788;2023-10-19T08:16:23;21.52;;;17.27;;
74245;SDS011;62601;51.044;13.788;2023-10-19T08:18:45;21.10;;;17.13;;
74245;SDS011;62601;51.044;13.788;2023-10-19T08:21:06;20.05;;;16.95;;
74245;SDS011;62601;51.044;13.788;2023-10-19T08:23:27;22.55;;;17.65;;
74245;SDS011;62601;51.044;13.788;2023-10-19T08:25:49;22.15;;;18.02;;
74245;SDS011;62601;51.044;13.788;2023-10-19T08:28:11;22.23;;;18.23;;
74245;SDS011;62601;51.044;13.788;2023-10-19T08:30:31;20.13;;;17.30;;
74245;SDS011;62601;51.044;13.788;2023-10-19T08:32:52;21.13;;;18.75;;
74245;SDS011;62601;51.044;13.788;2023-10-19T08:35:12;20.90;;;17.10;;
74245;SDS011;62601;51.044;13.788;2023-10-19T08:37:32;22.45;;;17.85;;
74245;SDS011;62601;51.044;13.788;2023-10-19T08:39:54;20.65;;;17.27;;
74245;SDS011;62601;51.044;13.788;2023-10-19T08:42:15;23.48;;;18.05;;
74245;SDS011;62601;51.044;13.788;2023-10-19T08:44:35;19.95;;;16.55;;
74245;SDS011;62601;51.044;13.788;2023-10-19T08:46:57;20.55;;;16.60;;
74245;SDS011;62601;51.044;13.788;2023-10-19T08:49:18;20.70;;;16.95;;
74245;SDS011;62601;51.044;13.788;2023-10-19T08:51:42;22.33;;;16.77;;
74245;SDS011;62601;51.044;13.788;2023-10-19T08:54:04;22.63;;;17.88;;
74245;SDS011;62601;51.044;13.788;2023-10-19T08:56:25;19.55;;;16.45;;
74245;SDS011;62601;51.044;13.788;2023-10-19T08:58:46;18.20;;;15.70;;
74245;SDS011;62601;51.044;13.788;2023-10-19T09:01:07;18.13;;;15.70;;
74245;SDS011;62601;51.044;13.788;2023-10-19T09:03:28;18.70;;;15.73;;
74245;SDS011;62601;51.044;13.788;2023-10-19T09:05:48;18.95;;;15.38;;
74245;SDS011;62601;51.044;13.788;2023-10-19T09:08:08;20.40;;;15.15;;
74245;SDS011;62601;51.044;13.788;2023-10-19T09:10:28;19.13;;;16.23;;
74245;SDS011;62601;51.044;13.788;2023-10-19T09:12:58;16.33;;;14.15;;
74245;SDS011;62601;51.044;13.788;2023-10-19T09:15:23;17.50;;;15.30;;
74245;SDS011;62601;51.044;13.788;2023-10-19T09:18:22;17.52;;;14.40;;
74245;SDS011;62601;51.044;13.788;2023-10-19T09:20:44;17.85;;;14.13;;
74245;SDS011;62601;51.044;13.788;2023-10-19T09:23:06;15.55;;;13.75;;
74245;SDS011;62601;51.044;13.788;2023-10-19T09:25:27;16.13;;;14.45;;
74245;SDS011;62601;51.044;13.788;2023-10-19T09:27:49;15.13;;;13.32;;
74245;SDS011;62601;51.044;13.788;2023-10-19T09:30:10;15.18;;;13.40;;
74245;SDS011;62601;51.044;13.788;2023-10-19T09:32:33;14.85;;;12.95;;
74245;SDS011;62601;51.044;13.788;2023-10-19T09:34:53;15.52;;;13.15;;
74245;SDS011;62601;51.044;13.788;2023-10-19T09:37:16;14.48;;;12.52;;
74245;SDS011;62601;51.044;13.788;2023-10-19T09:39:36;14.05;;;12.65;;
74245;SDS011;62601;51.044;13.788;2023-10-19T09:41:57;14.18;;;12.68;;
74245;SDS011;62601;51.044;13.788;2023-10-19T09:44:22;14.35;;;12.95;;
74245;SDS011;62601;51.044;13.788;2023-10-19T09:46:44;14.25;;;12.75;;
74245;SDS011;62601;51.044;13.788;2023-10-19T09:49:07;14.23;;;12.60;;
74245;SDS011;62601;51.044;13.788;2023-10-19T09:51:27;13.63;;;12.23;;
74245;SDS011;62601;51.044;13.788;2023-10-19T09:53:53;14.05;;;12.52;;
74245;SDS011;62601;51.044;13.788;2023-10-19T09:56:36;13.50;;;12.20;;
74245;SDS011;62601;51.044;13.788;2023-10-19T09:59:02;15.02;;;12.63;;
74245;SDS011;62601;51.044;13.788;2023-10-19T10:01:27;12.75;;;11.45;;
74245;SDS011;62601;51.044;13.788;2023-10-19T10:06:12;14.05;;;12.55;;
74245;SDS011;62601;51.044;13.788;2023-10-19T10:08:36;14.60;;;13.07;;
74245;SDS011;62601;51.044;13.788;2023-10-19T10:10:58;13.80;;;12.48;;
74245;SDS011;62601;51.044;13.788;2023-10-19T10:13:35;14.00;;;12.60;;
74245;SDS011;62601;51.044;13.788;2023-10-19T10:15:56;15.27;;;13.30;;
74245;SDS011;62601;51.044;13.788;2023-10-19T10:18:17;14.82;;;13.15;;
74245;SDS011;62601;51.044;13.788;2023-10-19T10:20:39;18.63;;;14.32;;
74245;SDS011;62601;51.044;13.788;2023-10-19T10:23:15;15.45;;;13.85;;
74245;SDS011;62601;51.044;13.788;2023-10-19T10:25:36;16.02;;;14.00;;
74245;SDS011;62601;51.044;13.788;2023-10-19T10:27:58;16.95;;;13.45;;
74245;SDS011;62601;51.044;13.788;2023-10-19T10:30:19;15.90;;;14.20;;
74245;SDS011;62601;51.044;13.788;2023-10-19T10:35:04;16.60;;;14.80;;
74245;SDS011;62601;51.044;13.788;2023-10-19T10:37:27;15.95;;;14.07;;
74245;SDS011;62601;51.044;13.788;2023-10-19T10:39:47;14.88;;;13.00;;
74245;SDS011;62601;51.044;13.788;2023-10-19T10:42:08;18.25;;;15.80;;
74245;SDS011;62601;51.044;13.788;2023-10-19T10:44:35;16.75;;;15.00;;
74245;SDS011;62601;51.044;13.788;2023-10-19T10:46:55;16.88;;;15.07;;
74245;SDS011;62601;51.044;13.788;2023-10-19T10:49:16;19.23;;;16.65;;
74245;SDS011;62601;51.044;13.788;2023-10-19T10:51:39;17.73;;;15.60;;
74245;SDS011;62601;51.044;13.788;2023-10-19T10:54:09;20.30;;;16.13;;
74245;SDS011;62601;51.044;13.788;2023-10-19T10:56:30;19.83;;;16.55;;
74245;SDS011;62601;51.044;13.788;2023-10-19T10:58:50;22.35;;;17.58;;
74245;SDS011;62601;51.044;13.788;2023-10-19T11:01:11;18.50;;;16.55;;
74245;SDS011;62601;51.044;13.788;2023-10-19T11:03:31;21.70;;;17.42;;
74245;SDS011;62601;51.044;13.788;2023-10-19T11:05:51;24.92;;;17.10;;
74245;SDS011;62601;51.044;13.788;2023-10-19T11:08:15;19.88;;;16.50;;
74245;SDS011;62601;51.044;13.788;2023-10-19T11:10:35;21.65;;;17.38;;
74245;SDS011;62601;51.044;13.788;2023-10-19T11:13:05;21.52;;;17.98;;
74245;SDS011;62601;51.044;13.788;2023-10-19T11:15:26;19.27;;;16.38;;
74245;SDS011;62601;51.044;13.788;2023-10-19T11:17:46;19.67;;;17.42;;
74245;SDS011;62601;51.044;13.788;2023-10-19T11:20:07;21.30;;;17.90;;
74245;SDS011;62601;51.044;13.788;2023-10-19T11:22:27;21.95;;;17.42;;
74245;SDS011;62601;51.044;13.788;2023-10-19T11:24:48;20.40;;;17.50;;
74245;SDS011;62601;51.044;13.788;2023-10-19T11:27:10;23.65;;;18.40;;
74245;SDS011;62601;51.044;13.788;2023-10-19T11:29:31;22.00;;;18.48;;
74245;SDS011;62601;51.044;13.788;2023-10-19T11:31:59;19.77;;;17.20;;
74245;SDS011;62601;51.044;13.788;2023-10-19T11:34:23;18.73;;;16.15;;
74245;SDS011;62601;51.044;13.788;2023-10-19T11:36:43;22.58;;;17.35;;
74245;SDS011;62601;51.044;13.788;2023-10-19T11:39:03;19.35;;;17.05;;
74245;SDS011;62601;51.044;13.788;2023-10-19T11:41:23;19.52;;;17.42;;
74245;SDS011;62601;51.044;13.788;2023-10-19T11:43:47;25.80;;;18.63;;
74245;SDS011;62601;51.044;13.788;2023-10-19T11:46:07;21.50;;;17.45;;
74245;SDS011;62601;51.044;13.788;2023-10-19T11:48:28;22.63;;;17.65;;
74245;SDS011;62601;51.044;13.788;2023-10-19T11:50:50;25.83;;;18.73;;
74245;SDS011;62601;51.044;13.788;2023-10-19T11:53:11;20.42;;;17.50;;
74245;SDS011;62601;51.044;13.788;2023-10-19T11:55:31;19.48;;;17.42;;
74245;SDS011;62601;51.044;13.788;2023-10-19T11:57:52;25.52;;;17.90;;
74245;SDS011;62601;51.044;13.788;2023-10-19T12:00:12;20.42;;;17.35;;
74245;SDS011;62601;51.044;13.788;2023-10-19T12:02:35;25.23;;;18.33;;
74245;SDS011;62601;51.044;13.788;2023-10-19T12:04:56;22.77;;;19.52;;
74245;SDS011;62601;51.044;13.788;2023-10-19T12:07:18;24.08;;;19.08;;
74245;SDS011;62601;51.044;13.788;2023-10-19T12:09:39;22.90;;;19.08;;
74245;SDS011;62601;51.044;13.788;2023-10-19T12:12:00;25.90;;;18.38;;
74245;SDS011;62601;51.044;13.788;2023-10-19T12:14:22;26.50;;;18.65;;
74245;SDS011;62601;51.044;13.788;2023-10-19T12:16:45;20.48;;;17.42;;
74245;SDS011;62601;51.044;13.788;2023-10-19T12:19:06;21.95;;;18.05;;
74245;SDS011;62601;51.044;13.788;2023-10-19T12:21:26;20.00;;;17.17;;
74245;SDS011;62601;51.044;13.788;2023-10-19T12:23:48;21.17;;;18.27;;
74245;SDS011;62601;51.044;13.788;2023-10-19T12:26:08;23.30;;;19.10;;
74245;SDS011;62601;51.044;13.788;2023-10-19T12:28:29;21.73;;;18.20;;
74245;SDS011;62601;51.044;13.788;2023-10-19T12:30:49;22.60;;;18.90;;
74245;SDS011;62601;51.044;13.788;2023-10-19T12:33:11;21.55;;;18.48;;
74245;SDS011;62601;51.044;13.788;2023-10-19T12:35:32;20.20;;;17.67;;
74245;SDS011;62601;51.044;13.788;2023-10-19T12:37:53;20.35;;;17.42;;
74245;SDS011;62601;51.044;13.788;2023-10-19T12:40:13;22.50;;;18.38;;
74245;SDS011;62601;51.044;13.788;2023-10-19T12:42:34;21.48;;;18.83;;
74245;SDS011;62601;51.044;13.788;2023-10-19T12:44:57;22.27;;;17.67;;
74245;SDS011;62601;51.044;13.788;2023-10-19T12:47:17;24.48;;;19.90;;
74245;SDS011;62601;51.044;13.788;2023-10-19T12:49:37;22.98;;;18.55;;
74245;SDS011;62601;51.044;13.788;2023-10-19T12:51:57;21.45;;;19.02;;
74245;SDS011;62601;51.044;13.788;2023-10-19T12:54:18;22.48;;;18.17;;
74245;SDS011;62601;51.044;13.788;2023-10-19T12:56:41;21.08;;;18.40;;
74245;SDS011;62601;51.044;13.788;2023-10-19T12:59:04;22.75;;;19.52;;
74245;SDS011;62601;51.044;13.788;2023-10-19T13:01:26;22.77;;;18.63;;
74245;SDS011;62601;51.044;13.788;2023-10-19T13:03:47;25.63;;;19.33;;
74245;SDS011;62601;51.044;13.788;2023-10-19T13:06:13;22.92;;;18.80;;
74245;SDS011;62601;51.044;13.788;2023-10-19T13:08:33;21.98;;;18.30;;
74245;SDS011;62601;51.044;13.788;2023-10-19T13:10:53;21.25;;;19.00;;
74245;SDS011;62601;51.044;13.788;2023-10-19T13:13:15;25.25;;;19.92;;
74245;SDS011;62601;51.044;13.788;2023-10-19T13:15:36;23.63;;;20.13;;
74245;SDS011;62601;51.044;13.788;2023-10-19T13:17:58;22.15;;;18.38;;
74245;SDS011;62601;51.044;13.788;2023-10-19T13:20:19;22.40;;;18.80;;
74245;SDS011;62601;51.044;13.788;2023-10-19T13:22:41;22.88;;;18.77;;
74245;SDS011;62601;51.044;13.788;2023-10-19T13:25:02;20.60;;;18.48;;
74245;SDS011;62601;51.044;13.788;2023-10-19T13:27:23;25.02;;;19.75;;
74245;SDS011;62601;51.044;13.788;2023-10-19T13:29:43;23.65;;;19.50;;
74245;SDS011;62601;51.044;13.788;2023-10-19T13:32:03;23.20;;;19.10;;
74245;SDS011;62601;51.044;13.788;2023-10-19T13:34:23;21.98;;;18.30;;
74245;SDS011;62601;51.044;13.788;2023-10-19T13:36:43;23.50;;;19.50;;
74245;SDS011;62601;51.044;13.788;2023-10-19T13:39:04;23.00;;;19.50;;
74245;SDS011;62601;51.044;13.788;2023-10-19T13:41:26;21.80;;;19.45;;
74245;SDS011;62601;51.044;13.788;2023-10-19T13:43:46;23.35;;;18.67;;